createdAt,value
2018-02-04T00:00:50.193Z,5.40
2018-02-04T00:01:50.202Z,5.52
2018-02-04T00:02:50.182Z,5.52
2018-02-04T00:03:50.159Z,5.43
2018-02-04T00:04:50.169Z,5.50
2018-02-04T00:05:50.137Z,5.52
2018-02-04T00:06:50.187Z,5.51
2018-02-04T00:07:50.137Z,5.51
2018-02-04T00:08:50.151Z,5.39
2018-02-04T00:09:50.102Z,5.51
2018-02-04T00:10:50.710Z,5.47
2018-02-04T00:11:50.091Z,5.43
2018-02-04T00:12:50.087Z,5.50
2018-02-04T00:13:50.088Z,5.40
2018-02-04T00:14:50.112Z,5.52
2018-02-04T00:15:50.082Z,5.55
2018-02-04T00:16:50.056Z,5.50
2018-02-04T00:17:50.052Z,5.54
2018-02-04T00:18:50.028Z,5.43
2018-02-04T00:19:52.712Z,5.39
2018-02-04T00:20:50.015Z,5.47
2018-02-04T00:21:50.004Z,5.52
2018-02-04T00:22:50.018Z,5.52
2018-02-04T00:23:50.718Z,5.48
2018-02-04T00:24:50.719Z,5.44
2018-02-04T00:25:49.984Z,5.47
2018-02-04T00:26:49.977Z,5.43
2018-02-04T00:27:49.954Z,5.47
2018-02-04T00:28:49.964Z,5.44
2018-02-04T00:29:49.929Z,5.51
2018-02-04T00:30:49.917Z,5.48
2018-02-04T00:31:49.919Z,5.54
2018-02-04T00:32:49.908Z,5.50
2018-02-04T00:33:49.890Z,5.55
2018-02-04T00:34:49.907Z,5.51
2018-02-04T00:35:49.879Z,5.41
2018-02-04T00:36:49.880Z,5.41
2018-02-04T00:37:49.883Z,5.41
2018-02-04T00:38:53.049Z,5.44
2018-02-04T00:39:49.851Z,5.44
2018-02-04T00:40:49.857Z,5.40
2018-02-04T00:41:50.724Z,5.39
2018-02-04T00:42:49.877Z,5.41
2018-02-04T00:43:49.878Z,5.37
2018-02-04T00:44:49.851Z,5.39
2018-02-04T00:45:50.746Z,5.40
2018-02-04T00:46:49.961Z,5.32
2018-02-04T00:47:49.875Z,5.44
2018-02-04T00:48:50.721Z,5.47
2018-02-04T00:49:52.733Z,5.40
2018-02-04T00:50:50.100Z,5.41
2018-02-04T00:51:49.760Z,5.37
2018-02-04T00:52:49.734Z,5.47
2018-02-04T00:53:50.702Z,5.39
2018-02-04T00:54:50.255Z,5.37
2018-02-04T00:55:49.725Z,5.41
2018-02-04T00:56:49.690Z,5.50
2018-02-04T00:57:49.698Z,5.51
2018-02-04T00:58:49.687Z,5.54
2018-02-04T00:59:49.665Z,5.51
2018-02-04T01:00:49.666Z,5.37
2018-02-04T01:01:49.657Z,5.54
2018-02-04T01:02:49.659Z,5.52
2018-02-04T01:03:49.631Z,5.48
2018-02-04T01:04:49.642Z,5.43
2018-02-04T01:05:49.625Z,5.48
2018-02-04T01:06:49.619Z,5.41
2018-02-04T01:07:49.598Z,5.48
2018-02-04T01:08:49.586Z,5.44
2018-02-04T01:09:49.605Z,5.47
2018-02-04T01:10:49.583Z,5.44
2018-02-04T01:11:49.584Z,5.50
2018-02-04T01:12:50.226Z,5.41
2018-02-04T01:13:49.570Z,5.47
2018-02-04T01:14:49.539Z,5.51
2018-02-04T01:15:49.542Z,5.50
2018-02-04T01:16:50.230Z,5.48
2018-02-04T01:17:49.516Z,5.54
2018-02-04T01:18:49.495Z,5.51
2018-02-04T01:19:49.531Z,5.47
2018-02-04T01:20:49.499Z,5.47
2018-02-04T01:21:49.484Z,5.37
2018-02-04T01:22:49.484Z,5.43
2018-02-04T01:23:49.462Z,5.55
2018-02-04T01:24:49.480Z,5.48
2018-02-04T01:25:49.439Z,5.51
2018-02-04T01:26:49.452Z,5.51
2018-02-04T01:27:49.432Z,5.50
2018-02-04T01:28:49.425Z,5.51
2018-02-04T01:29:49.406Z,5.51
2018-02-04T01:30:49.421Z,5.50
2018-02-04T01:31:49.389Z,5.48
2018-02-04T01:32:49.378Z,5.50
2018-02-04T01:33:49.373Z,5.50
2018-02-04T01:34:49.363Z,5.48
2018-02-04T01:35:49.349Z,5.44
2018-02-04T01:36:49.358Z,5.51
2018-02-04T01:37:49.342Z,5.43
2018-02-04T01:38:49.326Z,5.43
2018-02-04T01:39:49.313Z,5.41
2018-02-04T01:40:49.320Z,5.44
2018-02-04T01:41:49.339Z,5.50
2018-02-04T01:42:49.317Z,5.47
2018-02-04T01:43:49.311Z,5.37
2018-02-04T01:44:49.299Z,5.51
2018-02-04T01:45:49.270Z,5.40
2018-02-04T01:46:49.257Z,5.43
2018-02-04T01:47:50.238Z,5.37
2018-02-04T01:48:49.236Z,5.36
2018-02-04T01:49:49.245Z,5.47
2018-02-04T01:50:49.222Z,5.43
2018-02-04T01:51:49.222Z,5.39
2018-02-04T01:52:49.230Z,5.43
2018-02-04T01:53:49.198Z,5.41
2018-02-04T01:54:49.188Z,5.43
2018-02-04T01:55:49.183Z,5.34
2018-02-04T01:56:49.168Z,5.44
2018-02-04T01:57:49.162Z,5.48
2018-02-04T01:58:49.160Z,5.43
2018-02-04T01:59:49.144Z,5.43
2018-02-04T02:00:49.135Z,5.48
2018-02-04T02:01:49.144Z,5.40
2018-02-04T02:02:49.746Z,5.40
2018-02-04T02:03:49.111Z,5.37
2018-02-04T02:04:49.097Z,5.41
2018-02-04T02:05:49.093Z,5.34
2018-02-04T02:06:49.083Z,5.34
2018-02-04T02:07:49.092Z,5.39
2018-02-04T02:08:49.062Z,5.34
2018-02-04T02:09:49.057Z,5.32
2018-02-04T02:10:49.759Z,5.34
2018-02-04T02:11:49.046Z,5.33
2018-02-04T02:12:49.055Z,5.30
2018-02-04T02:13:49.026Z,5.27
2018-02-04T02:14:49.007Z,5.34
2018-02-04T02:15:49.008Z,5.37
2018-02-04T02:16:48.993Z,5.30
2018-02-04T02:17:49.752Z,5.33
2018-02-04T02:18:48.976Z,5.29
2018-02-04T02:19:48.971Z,5.30
2018-02-04T02:20:48.958Z,5.34
2018-02-04T02:21:48.951Z,5.32
2018-02-04T02:22:48.944Z,5.32
2018-02-04T02:23:48.935Z,5.36
2018-02-04T02:24:49.753Z,5.29
2018-02-04T02:25:48.933Z,5.34
2018-02-04T02:26:48.917Z,5.34
2018-02-04T02:27:48.904Z,5.29
2018-02-04T02:28:49.763Z,5.40
2018-02-04T02:29:48.882Z,5.32
2018-02-04T02:30:49.758Z,5.29
2018-02-04T02:31:49.773Z,5.29
2018-02-04T02:32:48.878Z,5.29
2018-02-04T02:33:48.851Z,5.18
2018-02-04T02:34:48.828Z,5.21
2018-02-04T02:35:49.781Z,5.24
2018-02-04T02:36:48.817Z,5.15
2018-02-04T02:37:48.796Z,5.12
2018-02-04T02:38:48.808Z,5.07
2018-02-04T02:39:48.796Z,5.03
2018-02-04T02:40:48.789Z,4.97
2018-02-04T02:41:48.770Z,4.96
2018-02-04T02:42:48.775Z,4.88
2018-02-04T02:43:48.758Z,4.86
2018-02-04T02:44:48.745Z,4.83
2018-02-04T02:45:48.736Z,4.74
2018-02-04T02:46:49.264Z,4.78
2018-02-04T02:47:51.257Z,4.64
2018-02-04T02:48:48.708Z,4.69
2018-02-04T02:49:48.698Z,4.66
2018-02-04T02:50:48.696Z,4.60
2018-02-04T02:51:48.694Z,4.57
2018-02-04T02:52:48.677Z,4.60
2018-02-04T02:53:48.663Z,4.46
2018-02-04T02:54:48.649Z,4.45
2018-02-04T02:55:48.638Z,4.43
2018-02-04T02:56:48.627Z,4.41
2018-02-04T02:57:48.635Z,4.41
2018-02-04T02:58:48.606Z,4.38
2018-02-04T02:59:48.620Z,4.45
2018-02-04T03:00:48.610Z,4.41
2018-02-04T03:01:48.583Z,4.34
2018-02-04T03:02:48.572Z,4.35
2018-02-04T03:03:48.585Z,4.38
2018-02-04T03:04:48.569Z,4.41
2018-02-04T03:05:48.551Z,4.38
2018-02-04T03:06:48.543Z,4.38
2018-02-04T03:07:48.541Z,4.39
2018-02-04T03:08:48.530Z,4.48
2018-02-04T03:09:49.277Z,4.48
2018-02-04T03:10:48.503Z,4.48
2018-02-04T03:11:49.269Z,4.41
2018-02-04T03:12:49.280Z,4.24
2018-02-04T03:13:48.476Z,4.30
2018-02-04T03:14:48.465Z,4.24
2018-02-04T03:15:48.482Z,4.24
2018-02-04T03:16:48.446Z,4.20
2018-02-04T03:17:48.458Z,4.20
2018-02-04T03:18:48.451Z,4.23
2018-02-04T03:19:48.412Z,4.24
2018-02-04T03:20:48.435Z,4.24
2018-02-04T03:21:48.400Z,4.27
2018-02-04T03:22:48.393Z,4.10
2018-02-04T03:23:48.384Z,4.05
2018-02-04T03:24:48.369Z,3.99
2018-02-04T03:25:48.351Z,3.99
2018-02-04T03:26:48.352Z,4.02
2018-02-04T03:27:48.351Z,3.99
2018-02-04T03:28:48.340Z,3.91
2018-02-04T03:29:48.324Z,3.88
2018-02-04T03:30:48.325Z,3.91
2018-02-04T03:31:49.283Z,3.88
2018-02-04T03:32:49.299Z,3.85
2018-02-04T03:33:48.299Z,3.88
2018-02-04T03:34:48.283Z,3.80
2018-02-04T03:35:48.264Z,3.85
2018-02-04T03:36:48.271Z,3.88
2018-02-04T03:37:48.239Z,3.88
2018-02-04T03:38:48.233Z,3.92
2018-02-04T03:39:48.242Z,3.84
2018-02-04T03:40:48.233Z,3.90
2018-02-04T03:41:48.203Z,3.80
2018-02-04T03:42:48.225Z,3.78
2018-02-04T03:43:48.204Z,3.74
2018-02-04T03:44:48.179Z,3.76
2018-02-04T03:45:48.170Z,3.82
2018-02-04T03:46:48.160Z,3.72
2018-02-04T03:47:48.157Z,3.67
2018-02-04T03:48:48.146Z,3.70
2018-02-04T03:49:48.128Z,3.63
2018-02-04T03:50:48.144Z,3.56
2018-02-04T03:51:48.119Z,3.56
2018-02-04T03:52:48.102Z,3.41
2018-02-04T03:53:48.107Z,3.48
2018-02-04T03:54:48.077Z,3.45
2018-02-04T03:55:48.782Z,3.45
2018-02-04T03:56:48.792Z,3.45
2018-02-04T03:57:48.055Z,3.36
2018-02-04T03:58:48.045Z,3.49
2018-02-04T03:59:48.036Z,3.48
2018-02-04T04:00:48.021Z,3.41
2018-02-04T04:01:48.013Z,3.33
2018-02-04T04:02:48.004Z,3.41
2018-02-04T04:03:48.037Z,3.45
2018-02-04T04:04:47.977Z,3.35
2018-02-04T04:05:47.994Z,3.33
2018-02-04T04:06:47.971Z,3.35
2018-02-04T04:07:47.956Z,3.36
2018-02-04T04:08:47.947Z,3.30
2018-02-04T04:08:59.945Z,3.32
2018-02-04T04:10:47.913Z,3.26
2018-02-04T04:11:47.915Z,3.15
2018-02-04T04:12:47.917Z,3.08
2018-02-04T04:13:47.893Z,2.99
2018-02-04T04:14:47.882Z,2.97
2018-02-04T04:15:47.873Z,2.97
2018-02-04T04:16:47.874Z,3.02
2018-02-04T04:17:47.867Z,2.90
2018-02-04T04:18:47.853Z,3.05
2018-02-04T04:19:47.839Z,2.93
2018-02-04T04:20:47.822Z,2.91
2018-02-04T04:21:47.809Z,2.82
2018-02-04T04:22:47.816Z,2.69
2018-02-04T04:23:47.792Z,2.72
2018-02-04T04:24:47.783Z,2.87
2018-02-04T04:25:47.770Z,2.87
2018-02-04T04:26:47.756Z,2.89
2018-02-04T04:27:47.753Z,2.94
2018-02-04T04:28:47.753Z,2.89
2018-02-04T04:29:47.740Z,2.97
2018-02-04T04:30:47.741Z,2.91
2018-02-04T04:31:47.712Z,2.89
2018-02-04T04:32:47.706Z,3.05
2018-02-04T04:33:47.687Z,3.04
2018-02-04T04:34:47.680Z,3.08
2018-02-04T04:35:47.676Z,3.07
2018-02-04T04:36:47.654Z,3.07
2018-02-04T04:37:47.639Z,2.99
2018-02-04T04:38:47.633Z,2.90
2018-02-04T04:39:47.662Z,2.90
2018-02-04T04:40:47.632Z,2.99
2018-02-04T04:41:47.637Z,3.04
2018-02-04T04:42:54.302Z,3.05
2018-02-04T04:43:47.595Z,3.02
2018-02-04T04:44:48.339Z,3.08
2018-02-04T04:45:47.581Z,3.00
2018-02-04T04:46:47.559Z,2.87
2018-02-04T04:47:47.547Z,2.99
2018-02-04T04:48:47.538Z,3.02
2018-02-04T04:49:48.306Z,2.96
2018-02-04T04:50:47.530Z,2.90
2018-02-04T04:51:47.521Z,2.90
2018-02-04T04:52:47.520Z,2.99
2018-02-04T04:53:48.300Z,2.91
2018-02-04T04:54:48.319Z,2.94
2018-02-04T04:55:54.303Z,2.99
2018-02-04T04:56:48.306Z,2.91
2018-02-04T04:57:47.471Z,2.89
2018-02-04T04:58:50.316Z,2.89
2018-02-04T04:59:54.306Z,2.87
2018-02-04T05:00:47.401Z,2.72
2018-02-04T05:01:47.406Z,2.81
2018-02-04T05:02:47.392Z,2.87
2018-02-04T05:03:47.382Z,2.93
2018-02-04T05:04:47.373Z,2.86
2018-02-04T05:05:47.370Z,2.87
2018-02-04T05:06:47.346Z,2.81
2018-02-04T05:07:47.338Z,2.65
2018-02-04T05:08:47.719Z,2.79
2018-02-04T05:09:47.314Z,2.78
2018-02-04T05:10:47.817Z,2.79
2018-02-04T05:11:47.296Z,2.75
2018-02-04T05:12:47.292Z,2.82
2018-02-04T05:13:48.237Z,2.93
2018-02-04T05:14:47.469Z,2.93
2018-02-04T05:15:48.278Z,2.91
2018-02-04T05:16:47.252Z,2.84
2018-02-04T05:17:47.238Z,2.90
2018-02-04T05:18:47.216Z,2.91
2018-02-04T05:19:47.301Z,2.94
2018-02-04T05:20:47.233Z,2.91
2018-02-04T05:21:47.212Z,2.97
2018-02-04T05:22:47.196Z,2.91
2018-02-04T05:23:47.181Z,2.84
2018-02-04T05:24:47.176Z,2.81
2018-02-04T05:25:47.193Z,2.66
2018-02-04T05:26:47.160Z,2.53
2018-02-04T05:27:47.165Z,2.65
2018-02-04T05:28:47.130Z,2.68
2018-02-04T05:29:47.110Z,2.61
2018-02-04T05:30:47.826Z,2.53
2018-02-04T05:31:47.117Z,2.53
2018-02-04T05:32:47.745Z,2.61
2018-02-04T05:33:47.065Z,2.60
2018-02-04T05:34:47.091Z,2.51
2018-02-04T05:35:47.306Z,2.48
2018-02-04T05:36:47.040Z,2.53
2018-02-04T05:37:47.028Z,2.48
2018-02-04T05:38:47.020Z,2.53
2018-02-04T05:39:47.048Z,2.54
2018-02-04T05:40:46.994Z,2.48
2018-02-04T05:41:47.116Z,2.42
2018-02-04T05:42:46.980Z,2.42
2018-02-04T05:43:47.102Z,2.50
2018-02-04T05:44:46.977Z,2.54
2018-02-04T05:45:46.963Z,2.47
2018-02-04T05:46:47.179Z,2.60
2018-02-04T05:47:46.940Z,2.55
2018-02-04T05:48:47.082Z,2.50
2018-02-04T05:49:47.273Z,2.55
2018-02-04T05:50:48.074Z,2.61
2018-02-04T05:51:46.895Z,2.55
2018-02-04T05:52:46.935Z,2.51
2018-02-04T05:53:46.863Z,2.54
2018-02-04T05:54:47.875Z,2.45
2018-02-04T05:55:47.820Z,2.47
2018-02-04T05:56:46.860Z,2.51
2018-02-04T05:57:46.837Z,2.54
2018-02-04T05:58:46.840Z,2.48
2018-02-04T05:59:46.803Z,2.42
2018-02-04T06:00:46.789Z,2.51
2018-02-04T06:01:47.490Z,2.48
2018-02-04T06:02:46.777Z,2.51
2018-02-04T06:03:46.753Z,2.42
2018-02-04T06:04:46.956Z,2.42
2018-02-04T06:05:46.740Z,2.45
2018-02-04T06:06:46.731Z,2.33
2018-02-04T06:07:46.716Z,2.33
2018-02-04T06:08:46.703Z,2.28
2018-02-04T06:09:46.685Z,2.30
2018-02-04T06:10:46.679Z,2.32
2018-02-04T06:11:46.700Z,2.39
2018-02-04T06:12:46.677Z,2.29
2018-02-04T06:13:46.643Z,2.25
2018-02-04T06:14:46.731Z,2.29
2018-02-04T06:15:47.070Z,2.25
2018-02-04T06:16:46.618Z,2.14
2018-02-04T06:17:46.940Z,2.25
2018-02-04T06:18:46.590Z,2.18
2018-02-04T06:19:46.613Z,2.15
2018-02-04T06:20:46.582Z,2.18
2018-02-04T06:21:46.563Z,2.25
2018-02-04T06:22:46.551Z,2.29
2018-02-04T06:23:46.543Z,2.24
2018-02-04T06:24:46.535Z,2.25
2018-02-04T06:25:46.522Z,2.29
2018-02-04T06:26:46.518Z,2.29
2018-02-04T06:27:46.543Z,2.25
2018-02-04T06:28:46.488Z,2.19
2018-02-04T06:29:46.490Z,2.28
2018-02-04T06:30:46.469Z,2.25
2018-02-04T06:31:46.457Z,2.22
2018-02-04T06:32:46.448Z,2.25
2018-02-04T06:33:46.442Z,2.19
2018-02-04T06:34:46.428Z,2.11
2018-02-04T06:35:46.424Z,2.04
2018-02-04T06:36:46.408Z,2.06
2018-02-04T06:37:46.405Z,2.06
2018-02-04T06:38:46.378Z,2.11
2018-02-04T06:39:46.405Z,2.03
2018-02-04T06:40:46.360Z,2.00
2018-02-04T06:41:46.377Z,2.04
2018-02-04T06:42:46.365Z,1.93
2018-02-04T06:43:46.329Z,1.93
2018-02-04T06:44:46.325Z,1.84
2018-02-04T06:45:48.830Z,1.95
2018-02-04T06:46:46.825Z,1.91
2018-02-04T06:47:46.277Z,2.00
2018-02-04T06:48:46.284Z,2.03
2018-02-04T06:49:46.293Z,1.92
2018-02-04T06:50:46.279Z,2.00
2018-02-04T06:51:46.236Z,2.01
2018-02-04T06:52:46.228Z,2.04
2018-02-04T06:53:46.828Z,1.97
2018-02-04T06:54:46.222Z,2.04
2018-02-04T06:55:46.212Z,1.95
2018-02-04T06:56:46.195Z,2.03
2018-02-04T06:57:46.186Z,1.91
2018-02-04T06:58:46.184Z,1.84
2018-02-04T06:59:46.172Z,1.84
2018-02-04T07:00:46.142Z,1.95
2018-02-04T07:00:58.134Z,1.85
2018-02-04T07:02:46.145Z,1.81
2018-02-04T07:03:46.172Z,1.93
2018-02-04T07:04:46.105Z,1.91
2018-02-04T07:05:46.090Z,1.78
2018-02-04T07:06:46.077Z,1.82
2018-02-04T07:07:46.090Z,1.93
2018-02-04T07:08:46.054Z,1.99
2018-02-04T07:09:46.065Z,1.93
2018-02-04T07:10:46.052Z,1.95
2018-02-04T07:11:46.841Z,1.91
2018-02-04T07:12:46.097Z,1.92
2018-02-04T07:13:46.000Z,1.91
2018-02-04T07:14:46.008Z,1.91
2018-02-04T07:15:45.980Z,1.95
2018-02-04T07:16:46.838Z,1.99
2018-02-04T07:17:45.964Z,1.91
2018-02-04T07:18:45.964Z,1.93
2018-02-04T07:19:45.943Z,1.89
2018-02-04T07:20:45.928Z,1.97
2018-02-04T07:21:46.849Z,1.92
2018-02-04T07:22:46.057Z,1.91
2018-02-04T07:23:46.843Z,1.95
2018-02-04T07:24:45.896Z,1.87
2018-02-04T07:25:45.873Z,2.01
2018-02-04T07:26:45.863Z,1.89
2018-02-04T07:27:45.867Z,1.85
2018-02-04T07:28:46.012Z,1.87
2018-02-04T07:29:45.855Z,1.87
2018-02-04T07:30:45.829Z,1.89
2018-02-04T07:31:45.809Z,1.93
2018-02-04T07:32:45.817Z,2.01
2018-02-04T07:33:45.778Z,2.00
2018-02-04T07:34:45.781Z,2.06
2018-02-04T07:35:45.775Z,1.97
2018-02-04T07:36:45.757Z,1.93
2018-02-04T07:37:45.749Z,1.91
2018-02-04T07:38:45.723Z,1.89
2018-02-04T07:39:45.727Z,1.95
2018-02-04T07:40:45.749Z,1.85
2018-02-04T07:41:45.693Z,2.03
2018-02-04T07:42:48.361Z,2.10
2018-02-04T07:43:45.692Z,2.04
2018-02-04T07:44:45.682Z,2.03
2018-02-04T07:46:00.349Z,2.07
2018-02-04T07:46:50.846Z,2.12
2018-02-04T07:47:50.838Z,2.25
2018-02-04T07:48:50.842Z,2.24
2018-02-04T07:49:50.818Z,2.22
2018-02-04T07:50:50.808Z,2.18
2018-02-04T07:51:50.809Z,2.15
2018-02-04T07:52:51.454Z,2.19
2018-02-04T07:53:51.069Z,2.14
2018-02-04T07:54:50.873Z,2.07
2018-02-04T07:55:50.753Z,2.11
2018-02-04T07:56:50.748Z,2.18
2018-02-04T07:57:50.727Z,2.22
2018-02-04T07:58:50.713Z,2.12
2018-02-04T07:59:50.718Z,2.06
2018-02-04T08:00:51.359Z,1.99
2018-02-04T08:01:51.359Z,2.04
2018-02-04T08:02:50.676Z,2.01
2018-02-04T08:03:50.680Z,2.01
2018-02-04T08:04:50.659Z,2.00
2018-02-04T08:05:50.755Z,2.03
2018-02-04T08:06:50.635Z,2.03
2018-02-04T08:07:50.646Z,1.99
2018-02-04T08:08:50.685Z,2.10
2018-02-04T08:09:50.604Z,2.10
2018-02-04T08:10:50.622Z,2.04
2018-02-04T08:11:50.581Z,2.06
2018-02-04T08:12:50.564Z,2.01
2018-02-04T08:13:51.363Z,1.92
2018-02-04T08:14:50.558Z,1.99
2018-02-04T08:15:50.543Z,2.00
2018-02-04T08:16:50.526Z,2.03
2018-02-04T08:17:50.511Z,2.04
2018-02-04T08:18:50.502Z,2.04
2018-02-04T08:19:50.506Z,2.11
2018-02-04T08:20:50.498Z,2.07
2018-02-04T08:21:50.469Z,2.15
2018-02-04T08:22:50.463Z,2.19
2018-02-04T08:23:51.363Z,2.28
2018-02-04T08:24:50.453Z,2.37
2018-02-04T08:25:50.425Z,2.33
2018-02-04T08:26:50.420Z,2.37
2018-02-04T08:27:50.413Z,2.40
2018-02-04T08:28:50.417Z,2.37
2018-02-04T08:29:50.427Z,2.40
2018-02-04T08:30:50.384Z,2.48
2018-02-04T08:31:50.500Z,2.35
2018-02-04T08:32:50.385Z,2.39
2018-02-04T08:33:50.375Z,2.37
2018-02-04T08:34:50.357Z,2.30
2018-02-04T08:35:52.867Z,2.28
2018-02-04T08:36:51.524Z,2.17
2018-02-04T08:37:50.299Z,2.07
2018-02-04T08:38:50.294Z,2.19
2018-02-04T08:39:50.292Z,2.21
2018-02-04T08:40:50.266Z,2.22
2018-02-04T08:41:50.262Z,2.15
2018-02-04T08:42:50.247Z,2.10
2018-02-04T08:43:50.237Z,2.11
2018-02-04T08:44:50.226Z,2.03
2018-02-04T08:45:50.210Z,2.04
2018-02-04T08:46:50.211Z,2.07
2018-02-04T08:47:50.195Z,2.15
2018-02-04T08:48:50.195Z,2.17
2018-02-04T08:49:50.182Z,2.18
2018-02-04T08:50:50.171Z,2.19
2018-02-04T08:51:50.150Z,2.29
2018-02-04T08:52:50.167Z,2.21
2018-02-04T08:53:50.137Z,2.25
2018-02-04T08:54:50.120Z,2.32
2018-02-04T08:55:50.108Z,2.36
2018-02-04T08:56:50.099Z,2.28
2018-02-04T08:57:50.086Z,2.45
2018-02-04T08:58:50.072Z,2.37
2018-02-04T08:59:50.068Z,2.35
2018-02-04T09:00:50.223Z,2.24
2018-02-04T09:01:50.042Z,2.24
2018-02-04T09:02:50.053Z,2.19
2018-02-04T09:03:50.027Z,2.22
2018-02-04T09:04:50.014Z,2.28
2018-02-04T09:05:50.006Z,2.28
2018-02-04T09:06:50.008Z,2.28
2018-02-04T09:07:49.986Z,2.21
2018-02-04T09:08:49.982Z,2.18
2018-02-04T09:09:49.973Z,2.30
2018-02-04T09:10:49.944Z,2.25
2018-02-04T09:11:49.944Z,2.21
2018-02-04T09:12:49.929Z,2.32
2018-02-04T09:13:49.947Z,2.45
2018-02-04T09:14:49.908Z,2.37
2018-02-04T09:15:49.900Z,2.43
2018-02-04T09:16:49.890Z,2.51
2018-02-04T09:17:49.885Z,2.54
2018-02-04T09:18:49.875Z,2.48
2018-02-04T09:19:49.864Z,2.54
2018-02-04T09:20:49.840Z,2.63
2018-02-04T09:21:49.838Z,2.65
2018-02-04T09:22:49.828Z,2.60
2018-02-04T09:23:49.811Z,2.66
2018-02-04T09:24:49.808Z,2.71
2018-02-04T09:25:49.786Z,2.69
2018-02-04T09:26:49.783Z,2.75
2018-02-04T09:27:49.773Z,2.71
2018-02-04T09:28:49.754Z,2.89
2018-02-04T09:29:49.750Z,2.86
2018-02-04T09:30:50.386Z,2.86
2018-02-04T09:31:49.743Z,2.93
2018-02-04T09:32:49.729Z,2.96
2018-02-04T09:33:49.728Z,3.07
2018-02-04T09:34:49.699Z,2.93
2018-02-04T09:35:49.688Z,3.08
2018-02-04T09:36:49.682Z,3.14
2018-02-04T09:37:49.673Z,3.07
2018-02-04T09:38:49.668Z,3.14
2018-02-04T09:39:49.659Z,3.15
2018-02-04T09:40:49.634Z,3.18
2018-02-04T09:41:49.643Z,3.25
2018-02-04T09:42:49.622Z,3.27
2018-02-04T09:43:49.616Z,3.35
2018-02-04T09:44:49.616Z,3.35
2018-02-04T09:45:49.595Z,3.45
2018-02-04T09:46:49.610Z,3.37
2018-02-04T09:47:49.585Z,3.51
2018-02-04T09:48:49.576Z,3.56
2018-02-04T09:49:49.558Z,3.64
2018-02-04T09:50:49.537Z,3.60
2018-02-04T09:51:49.538Z,3.67
2018-02-04T09:52:49.521Z,3.69
2018-02-04T09:53:49.514Z,3.69
2018-02-04T09:54:49.521Z,3.74
2018-02-04T09:55:49.483Z,3.67
2018-02-04T09:56:49.490Z,3.52
2018-02-04T09:57:49.479Z,3.54
2018-02-04T09:58:49.511Z,3.52
2018-02-04T09:59:49.463Z,3.49
2018-02-04T10:00:49.442Z,3.62
2018-02-04T10:01:49.454Z,3.66
2018-02-04T10:02:49.464Z,3.69
2018-02-04T10:03:49.415Z,3.76
2018-02-04T10:04:49.424Z,3.76
2018-02-04T10:05:49.398Z,3.82
2018-02-04T10:06:49.387Z,3.94
2018-02-04T10:07:49.394Z,3.84
2018-02-04T10:08:49.372Z,3.91
2018-02-04T10:09:49.370Z,4.00
2018-02-04T10:10:49.353Z,4.05
2018-02-04T10:11:49.360Z,4.02
2018-02-04T10:12:49.888Z,3.96
2018-02-04T10:13:49.334Z,3.91
2018-02-04T10:14:49.319Z,3.94
2018-02-04T10:15:49.304Z,3.85
2018-02-04T10:16:49.307Z,3.76
2018-02-04T10:17:49.285Z,3.70
2018-02-04T10:18:49.275Z,3.60
2018-02-04T10:19:49.261Z,3.62
2018-02-04T10:20:49.250Z,3.55
2018-02-04T10:21:49.251Z,3.62
2018-02-04T10:22:49.272Z,3.52
2018-02-04T10:23:49.226Z,3.44
2018-02-04T10:24:49.221Z,3.32
2018-02-04T10:25:49.226Z,3.30
2018-02-04T10:26:49.214Z,3.41
2018-02-04T10:27:49.196Z,3.46
2018-02-04T10:28:49.177Z,3.46
2018-02-04T10:29:49.183Z,3.55
2018-02-04T10:30:49.162Z,3.37
2018-02-04T10:31:49.172Z,3.26
2018-02-04T10:32:49.143Z,3.22
2018-02-04T10:33:49.131Z,3.26
2018-02-04T10:34:49.131Z,3.29
2018-02-04T10:35:49.115Z,3.20
2018-02-04T10:36:49.106Z,3.23
2018-02-04T10:37:49.102Z,3.20
2018-02-04T10:38:49.086Z,3.05
2018-02-04T10:39:49.084Z,3.02
2018-02-04T10:40:49.071Z,3.12
2018-02-04T10:41:49.057Z,3.05
2018-02-04T10:42:49.045Z,3.18
2018-02-04T10:43:49.055Z,3.08
2018-02-04T10:44:49.040Z,3.02
2018-02-04T10:45:49.019Z,3.02
2018-02-04T10:46:49.256Z,3.02
2018-02-04T10:47:49.294Z,2.89
2018-02-04T10:48:49.382Z,2.81
2018-02-04T10:49:49.125Z,2.86
2018-02-04T10:50:48.978Z,2.73
2018-02-04T10:51:48.947Z,2.79
2018-02-04T10:52:48.945Z,2.76
2018-02-04T10:53:48.934Z,2.87
2018-02-04T10:54:48.922Z,2.94
2018-02-04T10:55:48.906Z,2.97
2018-02-04T10:56:48.902Z,2.97
2018-02-04T10:57:48.898Z,3.05
2018-02-04T10:58:48.889Z,3.07
2018-02-04T10:59:48.886Z,3.25
2018-02-04T11:00:49.372Z,3.20
2018-02-04T11:01:49.149Z,3.30
2018-02-04T11:02:48.874Z,3.37
2018-02-04T11:03:48.834Z,3.37
2018-02-04T11:04:48.832Z,3.54
2018-02-04T11:05:48.841Z,3.59
2018-02-04T11:06:48.804Z,3.60
2018-02-04T11:07:48.795Z,3.74
2018-02-04T11:08:48.792Z,3.67
2018-02-04T11:09:48.779Z,3.48
2018-02-04T11:10:48.772Z,3.52
2018-02-04T11:11:48.752Z,3.64
2018-02-04T11:12:48.768Z,3.59
2018-02-04T11:13:48.732Z,3.67
2018-02-04T11:14:48.741Z,3.70
2018-02-04T11:15:48.753Z,3.67
2018-02-04T11:16:48.714Z,3.74
2018-02-04T11:17:48.703Z,3.78
2018-02-04T11:18:48.704Z,3.76
2018-02-04T11:19:48.684Z,3.70
2018-02-04T11:20:48.672Z,3.73
2018-02-04T11:21:48.669Z,3.55
2018-02-04T11:22:48.654Z,3.55
2018-02-04T11:23:48.642Z,3.55
2018-02-04T11:24:48.657Z,3.49
2018-02-04T11:25:48.626Z,3.69
2018-02-04T11:26:48.612Z,3.76
2018-02-04T11:27:48.604Z,3.72
2018-02-04T11:28:48.620Z,3.72
2018-02-04T11:29:48.595Z,3.84
2018-02-04T11:30:48.594Z,3.81
2018-02-04T11:31:48.560Z,3.74
2018-02-04T11:32:48.559Z,3.85
2018-02-04T11:33:48.546Z,3.91
2018-02-04T11:34:48.538Z,3.72
2018-02-04T11:35:48.526Z,3.72
2018-02-04T11:36:48.529Z,3.74
2018-02-04T11:37:48.521Z,3.72
2018-02-04T11:38:48.520Z,3.69
2018-02-04T11:39:48.488Z,3.76
2018-02-04T11:40:48.474Z,3.67
2018-02-04T11:41:48.470Z,3.52
2018-02-04T11:42:48.475Z,3.48
2018-02-04T11:43:48.448Z,3.52
2018-02-04T11:44:48.437Z,3.42
2018-02-04T11:45:48.427Z,3.46
2018-02-04T11:46:48.430Z,3.30
2018-02-04T11:47:48.419Z,3.26
2018-02-04T11:48:48.409Z,3.32
2018-02-04T11:49:48.401Z,3.37
2018-02-04T11:50:48.395Z,3.29
2018-02-04T11:51:48.376Z,3.32
2018-02-04T11:52:48.365Z,3.25
2018-02-04T11:53:48.352Z,3.23
2018-02-04T11:54:48.344Z,3.20
2018-02-04T11:55:48.342Z,3.30
2018-02-04T11:56:48.324Z,3.26
2018-02-04T11:57:48.308Z,3.26
2018-02-04T11:58:48.307Z,3.36
2018-02-04T11:59:48.286Z,3.42
2018-02-04T12:00:48.284Z,3.30
2018-02-04T12:01:48.287Z,3.41
2018-02-04T12:02:48.265Z,3.36
2018-02-04T12:03:48.274Z,3.42
2018-02-04T12:04:48.259Z,3.51
2018-02-04T12:05:48.231Z,3.46
2018-02-04T12:06:48.232Z,3.63
2018-02-04T12:07:48.223Z,3.67
2018-02-04T12:08:48.204Z,3.74
2018-02-04T12:09:48.200Z,3.67
2018-02-04T12:10:48.179Z,3.56
2018-02-04T12:11:48.186Z,3.46
2018-02-04T12:12:48.169Z,3.55
2018-02-04T12:13:48.167Z,3.56
2018-02-04T12:14:48.163Z,3.51
2018-02-04T12:15:48.134Z,3.63
2018-02-04T12:16:48.145Z,3.69
2018-02-04T12:17:48.127Z,3.73
2018-02-04T12:18:48.118Z,3.78
2018-02-04T12:19:48.103Z,3.81
2018-02-04T12:20:48.098Z,3.78
2018-02-04T12:21:48.085Z,3.78
2018-02-04T12:22:48.103Z,3.67
2018-02-04T12:23:48.064Z,3.76
2018-02-04T12:24:48.052Z,3.76
2018-02-04T12:25:48.049Z,3.62
2018-02-04T12:26:48.038Z,3.48
2018-02-04T12:27:48.046Z,3.51
2018-02-04T12:28:48.014Z,3.51
2018-02-04T12:29:48.003Z,3.41
2018-02-04T12:30:48.007Z,3.51
2018-02-04T12:31:47.982Z,3.37
2018-02-04T12:32:47.993Z,3.35
2018-02-04T12:33:47.967Z,3.37
2018-02-04T12:34:47.963Z,3.20
2018-02-04T12:35:47.978Z,3.18
2018-02-04T12:36:47.930Z,3.08
2018-02-04T12:37:47.954Z,3.08
2018-02-04T12:38:47.929Z,3.02
2018-02-04T12:39:47.908Z,3.05
2018-02-04T12:40:47.902Z,3.11
2018-02-04T12:41:47.894Z,3.20
2018-02-04T12:42:47.884Z,3.33
2018-02-04T12:43:47.883Z,3.25
2018-02-04T12:44:47.897Z,3.15
2018-02-04T12:45:47.871Z,3.09
2018-02-04T12:46:47.847Z,3.07
2018-02-04T12:47:47.841Z,3.00
2018-02-04T12:48:47.834Z,3.02
2018-02-04T12:49:47.824Z,3.18
2018-02-04T12:50:47.827Z,3.26
2018-02-04T12:51:47.799Z,3.26
2018-02-04T12:52:47.785Z,3.33
2018-02-04T12:53:47.774Z,3.17
2018-02-04T12:54:47.774Z,3.12
2018-02-04T12:55:47.758Z,3.14
2018-02-04T12:56:47.741Z,3.07
2018-02-04T12:57:47.732Z,3.04
2018-02-04T12:58:47.727Z,3.17
2018-02-04T12:59:47.728Z,3.22
2018-02-04T13:00:47.720Z,3.25
2018-02-04T13:01:47.725Z,3.36
2018-02-04T13:02:47.686Z,3.45
2018-02-04T13:03:47.682Z,3.49
2018-02-04T13:04:47.697Z,3.49
2018-02-04T13:05:47.655Z,3.52
2018-02-04T13:06:47.659Z,3.63
2018-02-04T13:07:47.636Z,3.66
2018-02-04T13:08:47.638Z,3.66
2018-02-04T13:09:47.618Z,3.70
2018-02-04T13:10:47.616Z,3.55
2018-02-04T13:11:47.593Z,3.45
2018-02-04T13:12:47.584Z,3.48
2018-02-04T13:13:47.585Z,3.32
2018-02-04T13:14:47.570Z,3.26
2018-02-04T13:15:47.562Z,3.20
2018-02-04T13:16:47.548Z,3.25
2018-02-04T13:17:47.542Z,3.23
2018-02-04T13:18:47.546Z,3.29